createdAt,value
2023-01-09T00:00:45.369Z,2.00
2023-01-09T00:03:11.756Z,2.05
2023-01-09T00:05:38.058Z,1.95
2023-01-09T00:08:04.570Z,2.20
2023-01-09T00:10:30.978Z,2.33
2023-01-09T00:12:57.284Z,2.35
2023-01-09T00:15:23.573Z,2.20
2023-01-09T00:17:49.984Z,2.10
2023-01-09T00:20:16.596Z,2.53
2023-01-09T00:22:42.932Z,2.63
2023-01-09T00:25:09.873Z,2.70
2023-01-09T00:27:36.800Z,2.83
2023-01-09T00:30:03.548Z,2.90
2023-01-09T00:32:29.843Z,3.10
2023-01-09T00:34:56.364Z,3.20
2023-01-09T00:37:22.695Z,3.00
2023-01-09T00:39:48.990Z,3.00
2023-01-09T00:42:20.620Z,2.78
2023-01-09T00:44:59.951Z,3.35
2023-01-09T00:47:30.998Z,3.10
2023-01-09T00:50:05.128Z,2.92
2023-01-09T00:52:34.924Z,3.33
2023-01-09T00:55:02.615Z,3.00
2023-01-09T00:57:29.812Z,2.90
2023-01-09T00:59:57.780Z,3.20
2023-01-09T01:02:24.187Z,3.20
2023-01-09T01:04:50.734Z,3.40
2023-01-09T01:07:17.429Z,2.78
2023-01-09T01:09:43.853Z,3.00
2023-01-09T01:12:10.259Z,2.83
2023-01-09T01:14:37.988Z,2.92
2023-01-09T01:17:04.988Z,2.55
2023-01-09T01:19:31.288Z,2.63
2023-01-09T01:21:57.603Z,2.55
2023-01-09T01:24:23.906Z,2.67
2023-01-09T01:26:50.288Z,2.22
2023-01-09T01:29:16.587Z,2.40
2023-01-09T01:31:42.892Z,2.22
2023-01-09T01:34:09.188Z,2.35
2023-01-09T01:36:35.664Z,1.98
2023-01-09T01:39:01.976Z,2.00
2023-01-09T01:41:28.298Z,1.90
2023-01-09T01:43:57.944Z,2.20
2023-01-09T01:46:24.390Z,1.80
2023-01-09T01:48:55.851Z,1.95
2023-01-09T01:51:25.920Z,2.22
2023-01-09T01:53:57.554Z,1.90
2023-01-09T01:56:23.798Z,1.83
2023-01-09T01:58:57.754Z,1.50
2023-01-09T02:01:25.598Z,1.57
2023-01-09T02:03:55.351Z,1.50
2023-01-09T02:06:21.702Z,1.50
2023-01-09T02:08:48.860Z,1.33
2023-01-09T02:11:18.363Z,1.27
2023-01-09T02:13:45.101Z,1.00
2023-01-09T02:16:14.403Z,0.95
2023-01-09T02:19:00.145Z,0.55
2023-01-09T02:21:57.826Z,0.73
2023-01-09T02:24:53.176Z,0.50
2023-01-09T02:27:31.756Z,0.60
2023-01-09T02:30:13.156Z,0.50
2023-01-09T02:32:55.190Z,0.70
2023-01-09T02:35:40.082Z,0.70
2023-01-09T02:38:40.678Z,0.50
2023-01-09T02:41:16.979Z,0.60
2023-01-09T02:43:43.300Z,0.65
2023-01-09T02:46:19.560Z,0.60
2023-01-09T02:48:46.359Z,0.65
2023-01-09T02:51:26.130Z,0.75
2023-01-09T02:54:04.375Z,0.85
2023-01-09T02:56:36.172Z,0.45
2023-01-09T02:59:18.783Z,0.80
2023-01-09T03:02:00.565Z,0.57
2023-01-09T03:04:34.237Z,0.50
2023-01-09T03:07:22.525Z,0.47
2023-01-09T03:09:52.101Z,0.50
2023-01-09T03:12:22.137Z,0.60
2023-01-09T03:14:51.625Z,0.45
2023-01-09T03:17:39.576Z,0.85
2023-01-09T03:20:10.329Z,0.60
2023-01-09T03:22:38.688Z,0.60
2023-01-09T03:25:05.740Z,0.38
2023-01-09T03:27:32.409Z,0.30
2023-01-09T03:29:58.732Z,0.52
2023-01-09T03:32:25.026Z,0.50
2023-01-09T03:34:51.337Z,0.35
2023-01-09T03:37:17.654Z,0.38
2023-01-09T03:39:43.961Z,0.47
2023-01-09T03:42:10.260Z,0.50
2023-01-09T03:44:36.567Z,0.68
2023-01-09T03:47:02.957Z,0.65
2023-01-09T03:49:29.267Z,0.50
2023-01-09T03:51:55.563Z,0.70
2023-01-09T03:54:21.865Z,0.65
2023-01-09T03:56:48.162Z,0.70
2023-01-09T03:59:14.474Z,0.85
2023-01-09T04:01:40.881Z,0.60
2023-01-09T04:04:07.278Z,1.20
2023-01-09T04:06:33.610Z,1.10
2023-01-09T04:08:59.919Z,1.73
2023-01-09T04:11:26.255Z,2.08
2023-01-09T04:13:52.587Z,2.28
2023-01-09T04:16:18.903Z,2.30
2023-01-09T04:18:45.227Z,2.42
2023-01-09T04:21:11.515Z,3.03
2023-01-09T04:23:37.831Z,2.85
2023-01-09T04:26:04.165Z,3.40
2023-01-09T04:28:30.521Z,3.88
2023-01-09T04:30:56.816Z,3.70
2023-01-09T04:33:23.114Z,4.28
2023-01-09T04:35:49.411Z,4.60
2023-01-09T04:38:17.024Z,4.80
2023-01-09T04:40:43.328Z,5.90
2023-01-09T04:43:09.620Z,5.93
2023-01-09T04:45:36.083Z,6.90
2023-01-09T04:48:02.469Z,6.13
2023-01-09T04:50:30.967Z,7.35
2023-01-09T04:52:57.610Z,7.53
2023-01-09T04:55:23.928Z,8.48
2023-01-09T04:57:53.381Z,8.60
2023-01-09T05:00:19.854Z,8.93
2023-01-09T05:02:46.194Z,9.10
2023-01-09T05:05:12.624Z,8.60
2023-01-09T05:07:39.519Z,8.50
2023-01-09T05:10:06.509Z,8.18
2023-01-09T05:12:33.159Z,7.43
2023-01-09T05:14:59.444Z,7.28
2023-01-09T05:17:25.836Z,7.05
2023-01-09T05:19:52.165Z,7.00
2023-01-09T05:22:18.550Z,7.00
2023-01-09T05:24:44.895Z,7.65
2023-01-09T05:27:11.259Z,8.43
2023-01-09T05:29:37.687Z,9.38
2023-01-09T05:32:04.204Z,8.65
2023-01-09T05:34:30.633Z,8.13
2023-01-09T05:36:56.977Z,7.60
2023-01-09T05:39:23.280Z,7.97
2023-01-09T05:41:49.590Z,7.93
2023-01-09T05:44:16.021Z,8.82
2023-01-09T05:46:42.336Z,8.95
2023-01-09T05:49:08.648Z,9.65
2023-01-09T05:51:34.943Z,10.73
2023-01-09T05:54:01.377Z,11.32
2023-01-09T05:56:27.697Z,11.40
2023-01-09T05:58:54.010Z,11.57
2023-01-09T06:01:22.825Z,11.27
2023-01-09T06:03:50.058Z,11.93
2023-01-09T06:06:16.416Z,12.68
2023-01-09T06:08:42.748Z,11.82
2023-01-09T06:11:09.101Z,13.50
2023-01-09T06:13:35.476Z,13.10
2023-01-09T06:16:01.857Z,13.80
2023-01-09T06:18:28.244Z,14.35
2023-01-09T06:20:54.566Z,13.35
2023-01-09T06:23:20.948Z,13.07
2023-01-09T06:25:47.255Z,15.20
2023-01-09T06:28:13.538Z,14.57
2023-01-09T06:30:39.844Z,13.88
2023-01-09T06:33:06.168Z,15.13
2023-01-09T06:35:32.463Z,15.45
2023-01-09T06:37:58.765Z,13.88
2023-01-09T06:40:25.073Z,15.02
2023-01-09T06:42:51.386Z,15.35
2023-01-09T06:45:18.028Z,14.20
2023-01-09T06:47:44.375Z,14.48
2023-01-09T06:50:11.324Z,14.18
2023-01-09T06:52:38.106Z,14.57
2023-01-09T06:55:04.936Z,15.27
2023-01-09T06:57:31.376Z,14.48
2023-01-09T06:59:57.830Z,13.32
2023-01-09T07:02:25.116Z,14.43
2023-01-09T07:04:51.443Z,12.77
2023-01-09T07:07:17.768Z,12.30
2023-01-09T07:09:44.098Z,11.45
2023-01-09T07:12:10.382Z,12.02
2023-01-09T07:14:36.690Z,11.70
2023-01-09T07:17:03.411Z,11.10
2023-01-09T07:19:29.711Z,10.95
2023-01-09T07:21:56.031Z,10.98
2023-01-09T07:24:22.350Z,10.45
2023-01-09T07:26:48.693Z,10.20
2023-01-09T07:29:14.994Z,8.30
2023-01-09T07:31:41.340Z,7.57
2023-01-09T07:34:07.709Z,7.22
2023-01-09T07:36:34.047Z,6.78
2023-01-09T07:39:00.386Z,7.07
2023-01-09T07:41:26.724Z,6.43
2023-01-09T07:43:53.028Z,6.43
2023-01-09T07:46:19.424Z,6.32
2023-01-09T07:48:45.740Z,7.10
2023-01-09T07:51:12.072Z,6.22
2023-01-09T07:53:38.371Z,6.05
2023-01-09T07:56:05.039Z,5.50
2023-01-09T07:58:31.377Z,5.40
2023-01-09T08:00:57.829Z,5.15
2023-01-09T08:03:24.152Z,4.07
2023-01-09T08:05:51.569Z,5.50
2023-01-09T08:08:18.040Z,4.57
2023-01-09T08:10:44.362Z,4.65
2023-01-09T08:13:10.691Z,3.97
2023-01-09T08:15:37.100Z,4.60
2023-01-09T08:18:03.515Z,4.50
2023-01-09T08:20:29.824Z,4.00
2023-01-09T08:22:56.123Z,4.03
2023-01-09T08:25:22.579Z,3.70
2023-01-09T08:27:48.946Z,3.20
2023-01-09T08:30:16.551Z,4.20
2023-01-09T08:32:43.113Z,3.90
2023-01-09T08:35:09.966Z,3.63
2023-01-09T08:37:36.394Z,3.67
2023-01-09T08:40:02.773Z,3.08
2023-01-09T08:42:29.100Z,4.13
2023-01-09T08:44:55.415Z,3.88
2023-01-09T08:47:23.767Z,3.97
2023-01-09T08:49:50.095Z,4.03
2023-01-09T08:52:16.400Z,3.58
2023-01-09T08:54:42.675Z,3.53
2023-01-09T08:57:08.991Z,4.15
2023-01-09T08:59:35.313Z,3.28
2023-01-09T09:02:01.650Z,3.30
2023-01-09T09:04:28.112Z,3.55
2023-01-09T09:06:54.417Z,3.75
2023-01-09T09:09:20.941Z,3.58
2023-01-09T09:11:47.295Z,3.70
2023-01-09T09:14:13.613Z,3.45
2023-01-09T09:16:39.955Z,3.22
2023-01-09T09:19:06.262Z,2.70
2023-01-09T09:21:32.547Z,2.65
2023-01-09T09:23:58.845Z,2.20
2023-01-09T09:26:25.177Z,2.47
2023-01-09T09:28:51.509Z,3.47
2023-01-09T09:31:17.857Z,2.33
2023-01-09T09:33:44.176Z,2.13
2023-01-09T09:36:10.606Z,2.05
2023-01-09T09:38:36.905Z,1.98
2023-01-09T09:41:16.505Z,2.17
2023-01-09T09:44:02.619Z,2.28
2023-01-09T09:46:49.869Z,1.90
2023-01-09T09:49:26.632Z,2.65
2023-01-09T09:52:08.274Z,2.00
2023-01-09T09:54:40.221Z,2.00
2023-01-09T09:57:14.275Z,1.83
2023-01-09T09:59:42.298Z,1.77
2023-01-09T10:02:08.579Z,1.83
2023-01-09T10:04:40.805Z,1.98
2023-01-09T10:07:17.994Z,2.10
2023-01-09T10:09:47.390Z,1.85
2023-01-09T10:12:27.416Z,1.52
2023-01-09T10:15:00.034Z,1.83
2023-01-09T10:17:29.004Z,1.70
2023-01-09T10:19:58.280Z,1.52
2023-01-09T10:23:01.852Z,1.50
2023-01-09T10:25:52.433Z,1.30
2023-01-09T10:28:59.546Z,1.25
2023-01-09T10:31:40.356Z,1.30
2023-01-09T10:34:25.267Z,1.63
2023-01-09T10:37:18.118Z,1.40
2023-01-09T10:39:54.041Z,1.65
2023-01-09T10:42:29.705Z,1.30
2023-01-09T10:45:14.325Z,1.52
2023-01-09T10:47:41.280Z,1.23
2023-01-09T10:50:30.771Z,2.10
2023-01-09T10:52:57.079Z,1.33
2023-01-09T10:55:42.796Z,1.58
2023-01-09T10:58:21.235Z,1.45
2023-01-09T11:00:49.539Z,1.30
2023-01-09T11:03:19.331Z,1.50
2023-01-09T11:05:54.282Z,1.10
2023-01-09T11:10:55.507Z,1.60
2023-01-09T11:13:25.169Z,1.23
2023-01-09T11:16:09.934Z,1.52
2023-01-09T11:18:56.599Z,1.48
2023-01-09T11:21:29.262Z,1.10
2023-01-09T11:23:56.296Z,1.10
2023-01-09T11:26:27.603Z,1.00
2023-01-09T11:29:07.092Z,1.33
2023-01-09T11:31:34.041Z,1.48
2023-01-09T11:34:00.458Z,1.63
2023-01-09T11:36:27.281Z,1.20
2023-01-09T11:38:56.812Z,1.33
2023-01-09T11:41:31.093Z,1.45
2023-01-09T11:43:59.470Z,1.48
2023-01-09T11:46:39.196Z,0.93
2023-01-09T11:49:20.516Z,1.20
2023-01-09T11:52:03.633Z,1.13
2023-01-09T11:54:36.846Z,0.82
2023-01-09T11:57:03.508Z,1.02
2023-01-09T11:59:31.233Z,1.60
2023-01-09T12:01:57.547Z,1.27
2023-01-09T12:04:42.753Z,1.70
2023-01-09T12:07:28.929Z,1.42
2023-01-09T12:10:06.026Z,1.63
2023-01-09T12:12:50.615Z,1.73
2023-01-09T12:15:31.010Z,1.70
2023-01-09T12:18:06.418Z,1.60
2023-01-09T12:21:08.154Z,2.10
2023-01-09T12:23:48.661Z,1.75
2023-01-09T12:26:23.815Z,1.48
2023-01-09T12:29:25.471Z,1.70
2023-01-09T12:32:24.331Z,1.70
2023-01-09T12:35:04.620Z,1.88
2023-01-09T12:37:46.400Z,2.15
2023-01-09T12:40:15.828Z,2.22
2023-01-09T12:42:54.259Z,2.00
2023-01-09T12:45:50.800Z,2.10
2023-01-09T12:48:54.270Z,1.75
2023-01-09T12:51:39.132Z,1.90
2023-01-09T12:54:42.783Z,2.25
2023-01-09T12:57:29.345Z,1.90
2023-01-09T13:00:00.102Z,2.30
2023-01-09T13:02:45.066Z,2.10
2023-01-09T13:05:29.781Z,2.20
2023-01-09T13:08:07.483Z,2.30
2023-01-09T13:10:39.708Z,2.42
2023-01-09T13:13:46.412Z,2.60
2023-01-09T13:16:20.933Z,2.67
2023-01-09T13:18:52.818Z,2.40
2023-01-09T13:21:20.032Z,2.63
2023-01-09T13:24:18.134Z,2.28
2023-01-09T13:26:55.462Z,2.40
2023-01-09T13:29:26.848Z,2.33
2023-01-09T13:32:14.744Z,2.22
2023-01-09T13:34:45.056Z,2.50
2023-01-09T13:37:25.288Z,2.05
2023-01-09T13:39:57.779Z,2.08
2023-01-09T13:42:25.234Z,2.15
2023-01-09T13:44:57.940Z,2.25
2023-01-09T13:47:28.541Z,2.35
2023-01-09T13:50:20.959Z,2.15
2023-01-09T13:52:47.540Z,2.33
2023-01-09T13:55:13.943Z,2.03
2023-01-09T13:58:06.039Z,2.00
2023-01-09T14:00:35.123Z,2.13
2023-01-09T14:03:38.817Z,2.10
2023-01-09T14:06:11.025Z,2.20
2023-01-09T14:08:38.123Z,2.22
2023-01-09T14:11:06.179Z,2.38
2023-01-09T14:13:43.578Z,1.85
2023-01-09T14:16:25.077Z,2.58
2023-01-09T14:19:01.063Z,2.03
2023-01-09T14:21:44.173Z,2.67
2023-01-09T14:24:18.620Z,2.05
2023-01-09T14:26:50.719Z,2.15
2023-01-09T14:29:39.221Z,2.42
2023-01-09T14:32:23.618Z,2.05
2023-01-09T14:34:57.461Z,1.90
2023-01-09T14:37:25.808Z,1.98
2023-01-09T14:39:52.254Z,1.90
2023-01-09T14:42:24.333Z,2.00
2023-01-09T14:44:59.675Z,2.20
2023-01-09T14:47:31.771Z,2.50
2023-01-09T14:50:22.868Z,2.17
2023-01-09T14:52:53.546Z,2.53
2023-01-09T14:55:26.352Z,2.40
2023-01-09T14:57:52.665Z,2.22
2023-01-09T15:00:19.110Z,2.22
2023-01-09T15:02:47.490Z,2.88
2023-01-09T15:05:17.509Z,3.15
2023-01-09T15:08:00.590Z,3.00
2023-01-09T15:10:32.681Z,3.30
2023-01-09T15:13:01.491Z,3.05
2023-01-09T15:15:27.996Z,3.10
2023-01-09T15:18:00.388Z,3.10
2023-01-09T15:20:28.620Z,3.40
2023-01-09T15:22:55.083Z,2.97
2023-01-09T15:25:33.591Z,3.63
2023-01-09T15:28:02.514Z,3.42
2023-01-09T15:30:33.006Z,3.47
2023-01-09T15:33:01.800Z,3.60
2023-01-09T15:35:28.850Z,3.90
2023-01-09T15:37:56.606Z,3.47
2023-01-09T15:40:33.584Z,3.50
2023-01-09T15:43:01.186Z,3.55
2023-01-09T15:45:38.987Z,3.70
2023-01-09T15:48:25.343Z,3.53
2023-01-09T15:50:58.682Z,3.67
2023-01-09T15:53:26.634Z,3.67
2023-01-09T15:56:14.112Z,3.50
2023-01-09T15:58:42.984Z,3.22
2023-01-09T16:01:32.496Z,3.58
2023-01-09T16:04:16.921Z,3.47
2023-01-09T16:06:46.668Z,3.72
2023-01-09T16:09:17.403Z,4.38
2023-01-09T16:11:48.570Z,3.97
2023-01-09T16:14:24.975Z,3.63
2023-01-09T16:16:52.280Z,3.58
2023-01-09T16:19:46.484Z,3.70
2023-01-09T16:22:26.380Z,3.78
2023-01-09T16:24:54.330Z,3.90
2023-01-09T16:27:29.649Z,3.90
2023-01-09T16:29:59.046Z,3.97
2023-01-09T16:32:31.995Z,4.80
2023-01-09T16:35:00.914Z,4.68
2023-01-09T16:37:27.562Z,5.22
2023-01-09T16:40:15.855Z,5.65
2023-01-09T16:42:42.969Z,5.60
2023-01-09T16:45:09.769Z,6.05
2023-01-09T16:47:36.070Z,7.60
2023-01-09T16:50:02.365Z,7.80
2023-01-09T16:52:29.318Z,7.70
2023-01-09T16:54:55.706Z,8.05
2023-01-09T16:57:22.078Z,7.75
2023-01-09T16:59:48.664Z,8.30
2023-01-09T17:02:18.335Z,7.50
2023-01-09T17:04:44.911Z,7.57
2023-01-09T17:07:15.855Z,7.43
2023-01-09T17:09:42.978Z,6.40
2023-01-09T17:12:20.843Z,6.10
2023-01-09T17:14:48.183Z,5.55
2023-01-09T17:17:16.228Z,6.03
2023-01-09T17:19:43.107Z,6.43
2023-01-09T17:22:13.156Z,6.70
2023-01-09T17:24:40.066Z,7.10
2023-01-09T17:27:06.595Z,7.97
2023-01-09T17:29:34.375Z,7.43
2023-01-09T17:32:01.575Z,8.90
2023-01-09T17:34:27.950Z,13.48
2023-01-09T17:36:54.294Z,24.27
2023-01-09T17:39:21.254Z,8.45
2023-01-09T17:41:47.571Z,9.20
2023-01-09T17:44:13.870Z,12.68
2023-01-09T17:46:42.281Z,7.57
2023-01-09T17:49:20.549Z,5.05
2023-01-09T17:51:46.887Z,4.40
2023-01-09T17:54:13.887Z,6.70
2023-01-09T17:56:43.665Z,7.72
2023-01-09T17:59:13.953Z,4.57
2023-01-09T18:01:41.533Z,4.80
2023-01-09T18:04:08.539Z,6.88
2023-01-09T18:06:35.330Z,5.68
2023-01-09T18:09:01.771Z,7.15
2023-01-09T18:11:28.219Z,5.05
2023-01-09T18:13:54.584Z,5.72
2023-01-09T18:16:23.691Z,4.38
2023-01-09T18:18:52.163Z,4.20
2023-01-09T18:21:22.113Z,4.28
2023-01-09T18:23:50.027Z,4.80
2023-01-09T18:26:17.109Z,4.90
2023-01-09T18:28:43.416Z,4.57
2023-01-09T18:31:09.734Z,4.82
2023-01-09T18:33:36.052Z,5.50
2023-01-09T18:36:09.548Z,5.68
2023-01-09T18:38:35.986Z,6.15
2023-01-09T18:41:04.710Z,6.03
2023-01-09T18:43:31.688Z,6.63
2023-01-09T18:45:58.051Z,6.30
2023-01-09T18:48:24.442Z,6.35
2023-01-09T18:50:50.725Z,7.93
2023-01-09T18:53:17.023Z,7.60
2023-01-09T18:55:43.324Z,7.60
2023-01-09T18:58:09.645Z,8.23
2023-01-09T19:00:35.938Z,8.23
2023-01-09T19:03:02.318Z,7.82
2023-01-09T19:05:28.647Z,8.00
2023-01-09T19:07:54.995Z,7.80
2023-01-09T19:10:21.351Z,9.25
2023-01-09T19:12:47.665Z,7.95
2023-01-09T19:15:13.980Z,7.50
2023-01-09T19:17:40.518Z,8.82
2023-01-09T19:20:07.952Z,8.07
2023-01-09T19:22:34.487Z,8.38
2023-01-09T19:25:00.872Z,7.68
2023-01-09T19:27:30.446Z,8.10
2023-01-09T19:29:56.792Z,8.45
2023-01-09T19:32:23.151Z,8.30
2023-01-09T19:34:49.622Z,9.05
2023-01-09T19:37:16.058Z,8.77
2023-01-09T19:39:42.423Z,8.95
2023-01-09T19:42:08.728Z,10.18
2023-01-09T19:44:35.040Z,10.02
2023-01-09T19:47:01.339Z,10.02
2023-01-09T19:49:27.933Z,10.98
2023-01-09T19:51:54.250Z,11.63
2023-01-09T19:54:20.620Z,12.25
2023-01-09T19:56:46.931Z,10.57
2023-01-09T19:59:13.240Z,11.90
2023-01-09T20:01:40.605Z,10.93
2023-01-09T20:04:08.971Z,12.02
2023-01-09T20:06:36.236Z,11.93
2023-01-09T20:09:04.013Z,12.82
2023-01-09T20:11:31.682Z,11.75
2023-01-09T20:13:58.112Z,12.68
2023-01-09T20:16:27.668Z,12.40
2023-01-09T20:18:58.976Z,14.00
2023-01-09T20:21:26.874Z,12.68
2023-01-09T20:23:55.803Z,12.88
2023-01-09T20:26:22.980Z,13.25
2023-01-09T20:28:49.623Z,12.88
2023-01-09T20:31:18.165Z,12.93
2023-01-09T20:33:45.873Z,12.35
2023-01-09T20:36:12.267Z,13.95
2023-01-09T20:38:40.420Z,14.38
2023-01-09T20:41:11.919Z,13.35
2023-01-09T20:43:38.831Z,14.02
2023-01-09T20:46:05.277Z,14.27
2023-01-09T20:48:32.315Z,13.23
2023-01-09T20:51:08.282Z,15.15
2023-01-09T20:53:34.895Z,14.82
2023-01-09T20:56:03.607Z,13.77
2023-01-09T20:58:30.008Z,16.00
2023-01-09T21:00:56.457Z,14.80
2023-01-09T21:03:23.214Z,14.10
2023-01-09T21:05:49.539Z,14.75
2023-01-09T21:08:15.949Z,14.07
2023-01-09T21:10:42.273Z,13.77
2023-01-09T21:13:08.630Z,12.65
2023-01-09T21:15:37.592Z,13.57
2023-01-09T21:18:03.967Z,12.93
2023-01-09T21:20:30.343Z,14.07
2023-01-09T21:22:56.681Z,14.18
2023-01-09T21:25:23.028Z,14.65
2023-01-09T21:27:49.421Z,14.25
2023-01-09T21:30:16.202Z,14.73
2023-01-09T21:32:42.548Z,14.88
2023-01-09T21:35:08.954Z,15.80
2023-01-09T21:37:37.343Z,16.00
2023-01-09T21:40:04.840Z,14.70
2023-01-09T21:42:31.125Z,14.55
2023-01-09T21:44:57.439Z,15.25
2023-01-09T21:47:23.794Z,14.45
2023-01-09T21:49:50.140Z,14.80
2023-01-09T21:52:16.587Z,14.57
2023-01-09T21:54:42.870Z,14.68
2023-01-09T21:57:09.172Z,15.02
2023-01-09T21:59:35.530Z,12.95
2023-01-09T22:02:01.871Z,13.40
2023-01-09T22:04:28.872Z,13.55
2023-01-09T22:06:56.202Z,13.40
2023-01-09T22:09:22.615Z,11.68
2023-01-09T22:11:48.948Z,11.60
2023-01-09T22:14:17.915Z,10.57
2023-01-09T22:16:45.521Z,10.90
2023-01-09T22:19:13.902Z,9.65
2023-01-09T22:21:40.293Z,10.30
2023-01-09T22:24:07.014Z,10.15
2023-01-09T22:26:34.105Z,10.55
2023-01-09T22:29:00.600Z,10.75
2023-01-09T22:31:27.012Z,10.65
2023-01-09T22:33:55.471Z,11.02
2023-01-09T22:36:21.781Z,10.93
2023-01-09T22:38:48.072Z,11.40
2023-01-09T22:41:14.833Z,11.98
2023-01-09T22:43:41.269Z,11.45
2023-01-09T22:46:11.178Z,12.18
2023-01-09T22:48:38.167Z,11.60
2023-01-09T22:51:07.083Z,12.13
2023-01-09T22:53:34.155Z,12.85
2023-01-09T22:56:02.943Z,13.55
2023-01-09T22:58:30.681Z,12.43
2023-01-09T23:00:57.731Z,13.73
2023-01-09T23:03:24.478Z,12.80
2023-01-09T23:06:12.784Z,12.88
2023-01-09T23:08:39.903Z,14.07
2023-01-09T23:11:09.155Z,12.32
2023-01-09T23:13:35.981Z,13.00
2023-01-09T23:16:02.330Z,13.23
2023-01-09T23:18:28.879Z,12.75
2023-01-09T23:21:00.530Z,13.50
2023-01-09T23:23:28.442Z,13.77
2023-01-09T23:25:57.008Z,12.73
2023-01-09T23:28:25.061Z,14.05
2023-01-09T23:30:51.461Z,13.77
2023-01-09T23:33:17.984Z,14.02
2023-01-09T23:35:44.493Z,13.32
2023-01-09T23:38:10.931Z,12.43
2023-01-09T23:40:38.727Z,12.93
2023-01-09T23:43:05.145Z,12.80
2023-01-09T23:45:33.265Z,12.45
2023-01-09T23:47:59.663Z,13.32
2023-01-09T23:50:25.952Z,12.38
2023-01-09T23:52:52.357Z,11.20
2023-01-09T23:55:18.678Z,11.43
2023-01-09T23:57:44.993Z,11.15
